Time;durP1;ratioP1;P1;durP2;ratioP2;P2;SDS_P1;SDS_P2;PMS_P1;PMS_P2;Temp;Humidity;BMP_temperature;BMP_pressure;BME280_temperature;BME280_humidity;BME280_pressure;Samples;Min_cycle;Max_cycle;Signal;HPM_P1;HPM_P2
2021/05/30 00:01:29;;;;;;;;;;;;;;;23.04;61.72;100522.94;1767739;79;20652;-58
2021/05/30 00:03:55;;;;;;;;;;;;;;;23.05;61.74;100519.59;1774029;79;20271;-58
2021/05/30 00:06:21;;;;;;;;;;;;;;;23.04;61.72;100522.94;1770997;80;21007;-58
2021/05/30 00:08:47;;;;;;;;;;;;;;;23.04;61.72;100527.09;1767953;79;20296;-58
2021/05/30 00:11:13;;;;;;;;;;;;;;;23.04;61.71;100529.09;1761964;79;20278;-58
2021/05/30 00:13:39;;;;;;;;;;;;;;;23.02;61.72;100528.60;1765502;79;20242;-58
2021/05/30 00:16:05;;;;;;;;;;;;;;;23.01;61.73;100532.52;1768088;80;20501;-57
2021/05/30 00:18:31;;;;;;;;;;;;;;;23.00;61.75;100524.77;1767418;80;21137;-58
2021/05/30 00:20:57;;;;;;;;;;;;;;;22.99;61.80;100526.52;1770929;79;20702;-58
2021/05/30 00:23:23;;;;;;;;;;;;;;;22.97;61.82;100529.63;1764855;79;20267;-58
2021/05/30 00:25:49;;;;;;;;;;;;;;;22.95;61.85;100526.96;1767291;79;20897;-58
2021/05/30 00:28:15;;;;;;;;;;;;;;;22.94;61.90;100534.47;1771260;79;20160;-58
2021/05/30 00:30:41;;;;;;;;;;;;;;;22.92;61.94;100531.78;1774104;79;20969;-58
2021/05/30 00:33:07;;;;;;;;;;;;;;;22.90;61.95;100532.72;1766860;79;20189;-58
2021/05/30 00:35:33;;;;;;;;;;;;;;;22.88;61.99;100530.27;1769644;79;20247;-58
2021/05/30 00:37:59;;;;;;;;;;;;;;;22.87;62.04;100536.17;1770026;80;20199;-58
2021/05/30 00:40:25;;;;;;;;;;;;;;;22.86;62.08;100533.16;1768896;79;20284;-58
2021/05/30 00:42:51;;;;;;;;;;;;;;;22.85;62.13;100525.98;1772586;79;21002;-58
2021/05/30 00:45:18;;;;;;;;;;;;;;;22.83;62.17;100531.86;1764972;79;20355;-58
2021/05/30 00:47:44;;;;;;;;;;;;;;;22.81;62.22;100526.42;1775100;80;20273;-58
2021/05/30 00:50:11;;;;;;;;;;;;;;;22.81;62.24;100526.42;1773238;79;21946;-58
2021/05/30 00:52:42;;;;;;;;;;;;;;;22.79;62.28;100519.03;1765680;79;20203;-59
2021/05/30 00:55:09;;;;;;;;;;;;;;;22.76;62.33;100515.77;1767021;80;21102;-58
2021/05/30 00:57:35;;;;;;;;;;;;;;;22.76;62.34;100508.02;1769066;79;20434;-58
2021/05/30 01:00:00;;;;;;;;;;;;;;;22.75;62.39;100507.78;1771980;79;20270;-58
2021/05/30 01:02:27;;;;;;;;;;;;;;;22.73;62.43;100495.66;1770487;79;21286;-58
2021/05/30 01:04:52;;;;;;;;;;;;;;;22.72;62.47;100495.41;1771549;79;20805;-58
2021/05/30 01:07:18;;;;;;;;;;;;;;;22.71;62.50;100500.72;1772668;79;21794;-58
2021/05/30 01:09:46;;;;;;;;;;;;;;;22.69;62.55;100487.78;1772982;79;20214;-58
2021/05/30 01:12:13;;;;;;;;;;;;;;;22.68;62.58;100483.92;1775635;80;20256;-57
2021/05/30 01:14:39;;;;;;;;;;;;;;;22.68;62.62;100496.40;1773986;79;20272;-58
2021/05/30 01:17:05;;;;;;;;;;;;;;;22.68;62.64;100490.28;1774918;79;20218;-58
2021/05/30 01:19:32;;;;;;;;;;;;;;;22.72;62.65;100495.41;1774488;79;20898;-58
2021/05/30 01:21:59;;;;;;;;;;;;;;;22.74;62.70;100495.88;1773736;79;20211;-57
2021/05/30 01:24:25;;;;;;;;;;;;;;;22.75;62.77;100494.73;1770418;79;20224;-57
2021/05/30 01:26:51;;;;;;;;;;;;;;;22.79;62.81;100498.23;1773795;79;20231;-57
2021/05/30 01:29:17;;;;;;;;;;;;;;;22.82;62.86;100496.16;1775172;79;20574;-58
2021/05/30 01:31:42;;;;;;;;;;;;;;;22.85;62.91;100503.22;1770532;79;21111;-57
2021/05/30 01:34:08;;;;;;;;;;;;;;;22.87;62.90;100502.31;1769716;79;20210;-58
2021/05/30 01:36:34;;;;;;;;;;;;;;;22.91;62.94;100501.05;1773514;79;20210;-58
2021/05/30 01:39:00;;;;;;;;;;;;;;;22.94;62.96;100501.75;1772425;79;20159;-58
2021/05/30 01:41:26;;;;;;;;;;;;;;;22.96;62.95;100498.86;1769524;79;20205;-58
2021/05/30 01:43:52;;;;;;;;;;;;;;;22.98;62.95;100493.80;1770152;79;20994;-57
2021/05/30 01:46:18;;;;;;;;;;;;;;;23.00;62.97;100496.24;1773575;79;21374;-58
2021/05/30 01:48:44;;;;;;;;;;;;;;;22.99;62.94;100502.94;1777764;79;20200;-57
2021/05/30 01:51:10;;;;;;;;;;;;;;;22.99;62.93;100500.16;1774074;79;20415;-57
2021/05/30 01:54:22;;;;;;;;;;;;;;;22.98;62.89;100492.41;1775298;79;20243;-58
2021/05/30 01:58:32;;;;;;;;;;;;;;;22.95;62.87;100497.84;1774074;79;20255;-58
2021/05/30 02:00:59;;;;;;;;;;;;;;;22.94;62.84;100494.81;1771511;79;20576;-57
2021/05/30 02:03:25;;;;;;;;;;;;;;;22.91;62.85;100496.89;1747871;80;20260;-58
2021/05/30 02:05:54;;;;;;;;;;;;;;;22.88;62.87;100495.59;1777719;79;20272;-58
2021/05/30 02:08:20;;;;;;;;;;;;;;;22.86;62.88;100485.43;1772462;79;21179;-58
2021/05/30 02:10:46;;;;;;;;;;;;;;;22.85;62.85;100483.80;1723247;79;20362;-58
2021/05/30 02:13:12;;;;;;;;;;;;;;;22.83;62.87;100482.53;1771906;79;20238;-58
2021/05/30 02:15:38;;;;;;;;;;;;;;;22.81;62.89;100486.20;1750334;80;20222;-59
2021/05/30 02:18:04;;;;;;;;;;;;;;;22.79;62.88;100488.53;1760911;81;20238;-59
2021/05/30 02:20:40;;;;;;;;;;;;;;;22.77;62.91;100487.47;1765301;81;21126;-59
2021/05/30 02:23:12;;;;;;;;;;;;;;;22.74;62.94;100482.61;1763482;80;20323;-59
2021/05/30 02:25:38;;;;;;;;;;;;;;;22.71;62.97;100481.30;1770818;79;20572;-59
2021/05/30 02:28:04;;;;;;;;;;;;;;;22.70;62.98;100481.06;1768661;79;20248;-58
2021/05/30 02:30:30;;;;;;;;;;;;;;;22.66;63.00;100480.09;1769315;79;20558;-58
2021/05/30 02:32:56;;;;;;;;;;;;;;;22.66;63.02;100479.30;1772012;79;21803;-58
2021/05/30 02:35:22;;;;;;;;;;;;;;;22.63;63.06;100480.78;1771390;79;20207;-58
2021/05/30 02:37:48;;;;;;;;;;;;;;;22.62;63.07;100471.40;1773472;79;20291;-58
2021/05/30 02:40:15;;;;;;;;;;;;;;;22.60;63.10;100470.38;1774041;79;20285;-58
2021/05/30 02:42:41;;;;;;;;;;;;;;;22.59;63.13;100473.47;1768064;79;20511;-58
2021/05/30 02:45:07;;;;;;;;;;;;;;;22.58;63.15;100478.77;1770873;79;21813;-58
2021/05/30 02:47:33;;;;;;;;;;;;;;;22.56;63.16;100481.91;1773028;79;20199;-58
2021/05/30 02:49:59;;;;;;;;;;;;;;;22.56;63.19;100488.02;1766423;79;20577;-58
2021/05/30 02:52:25;;;;;;;;;;;;;;;22.55;63.21;100474.73;1769098;80;20722;-59
2021/05/30 02:54:51;;;;;;;;;;;;;;;22.54;63.25;100480.03;1751398;80;20437;-58
2021/05/30 02:57:17;;;;;;;;;;;;;;;22.53;63.26;100484.55;1753778;80;21045;-57
2021/05/30 02:59:43;;;;;;;;;;;;;;;22.52;63.27;100492.05;1731278;82;20179;-57
2021/05/30 03:02:09;;;;;;;;;;;;;;;22.54;63.27;100491.13;1720404;82;20339;-57
2021/05/30 03:04:35;;;;;;;;;;;;;;;22.56;63.26;100493.00;1725825;82;20696;-58
2021/05/30 03:07:00;;;;;;;;;;;;;;;22.58;63.31;100484.32;1771960;80;20185;-59
2021/05/30 03:09:27;;;;;;;;;;;;;;;22.61;63.36;100489.21;1765876;80;20965;-58
2021/05/30 03:11:53;;;;;;;;;;;;;;;22.64;63.37;100484.36;1767828;80;20232;-59
2021/05/30 03:14:19;;;;;;;;;;;;;;;22.67;63.41;100489.22;1722348;82;20673;-58
2021/05/30 03:16:45;;;;;;;;;;;;;;;22.71;63.44;100493.78;1755811;81;20510;-58
2021/05/30 03:19:11;;;;;;;;;;;;;;;22.74;63.44;100486.16;1749968;80;20209;-58
2021/05/30 03:21:38;;;;;;;;;;;;;;;22.79;63.45;100485.15;1748094;80;21061;-58
2021/05/30 03:24:05;;;;;;;;;;;;;;;22.82;63.44;100483.10;1763066;80;20320;-58
2021/05/30 03:26:31;;;;;;;;;;;;;;;22.85;63.42;100484.37;1767871;80;20582;-58
2021/05/30 03:28:57;;;;;;;;;;;;;;;22.85;63.41;100478.25;1766313;80;20224;-58
2021/05/30 03:31:23;;;;;;;;;;;;;;;22.88;63.43;100476.17;1766703;80;20214;-58
2021/05/30 03:33:49;;;;;;;;;;;;;;;22.88;63.37;100462.88;1764238;80;21157;-58
2021/05/30 03:36:20;;;;;;;;;;;;;;;22.87;63.33;100459.32;1762744;80;20234;-58
2021/05/30 03:38:44;;;;;;;;;;;;;;;22.87;63.29;100459.89;1758703;80;20205;-58
2021/05/30 03:41:13;;;;;;;;;;;;;;;22.87;63.28;100458.51;1765406;80;20256;-57
2021/05/30 03:43:39;;;;;;;;;;;;;;;22.84;63.23;100450.27;1766766;80;20236;-58
2021/05/30 03:46:05;;;;;;;;;;;;;;;22.83;63.21;100446.47;1766917;80;21044;-57
2021/05/30 03:48:31;;;;;;;;;;;;;;;22.81;63.18;100447.37;1765104;80;21720;-58
2021/05/30 03:50:57;;;;;;;;;;;;;;;22.79;63.18;100446.31;1770657;79;20254;-58
2021/05/30 03:53:23;;;;;;;;;;;;;;;22.76;63.18;100460.30;1768663;79;20217;-58
2021/05/30 03:55:49;;;;;;;;;;;;;;;22.74;63.17;100465.36;1764446;80;20294;-58
2021/05/30 03:58:15;;;;;;;;;;;;;;;22.73;63.17;100469.31;1774929;79;21126;-59
2021/05/30 04:00:42;;;;;;;;;;;;;;;22.72;63.17;100464.91;1766643;79;20149;-59
2021/05/30 04:03:08;;;;;;;;;;;;;;;22.69;63.17;100463.40;1765436;80;20260;-58
2021/05/30 04:05:34;;;;;;;;;;;;;;;22.69;63.17;100475.88;1770328;79;20315;-59
2021/05/30 04:08:00;;;;;;;;;;;;;;;22.66;63.18;100470.38;1769681;79;20243;-58
2021/05/30 04:10:26;;;;;;;;;;;;;;;22.64;63.17;100476.86;1763539;80;21095;-58
2021/05/30 04:12:52;;;;;;;;;;;;;;;22.63;63.18;100474.41;1769776;79;20219;-58
2021/05/30 04:15:18;;;;;;;;;;;;;;;22.62;63.19;100475.56;1772012;79;21030;-59
2021/05/30 04:17:44;;;;;;;;;;;;;;;22.60;63.21;100483.42;1772452;79;20148;-59
2021/05/30 04:20:13;;;;;;;;;;;;;;;22.59;63.20;100483.98;1771158;79;20550;-58
2021/05/30 04:22:39;;;;;;;;;;;;;;;22.57;63.22;100482.15;1770882;79;22030;-58
2021/05/30 04:25:06;;;;;;;;;;;;;;;22.56;63.22;100490.80;1769471;79;21542;-58
2021/05/30 04:27:32;;;;;;;;;;;;;;;22.55;63.21;100493.33;1770823;79;20254;-58
2021/05/30 04:29:59;;;;;;;;;;;;;;;22.55;63.23;100501.06;1770941;79;20514;-59
2021/05/30 04:32:25;;;;;;;;;;;;;;;22.54;63.23;100502.21;1771432;79;20219;-59
2021/05/30 04:34:51;;;;;;;;;;;;;;;22.53;63.26;100501.19;1763552;80;21176;-58
2021/05/30 04:37:17;;;;;;;;;;;;;;;22.54;63.26;100498.63;1772574;79;20200;-58
2021/05/30 04:39:43;;;;;;;;;;;;;;;22.53;63.28;100492.86;1770008;79;20254;-58
2021/05/30 04:42:09;;;;;;;;;;;;;;;22.52;63.29;100495.39;1766656;79;20258;-58
2021/05/30 04:44:35;;;;;;;;;;;;;;;22.52;63.30;100494.01;1754108;81;21877;-58
2021/05/30 04:47:01;;;;;;;;;;;;;;;22.52;63.30;100495.39;1766826;80;20960;-59
2021/05/30 04:49:26;;;;;;;;;;;;;;;22.52;63.29;100486.50;1776532;79;20202;-58
2021/05/30 04:51:52;;;;;;;;;;;;;;;22.52;63.30;100483.73;1771262;79;20213;-58
2021/05/30 04:54:18;;;;;;;;;;;;;;;22.55;63.28;100486.39;1773210;79;20256;-58
2021/05/30 04:56:45;;;;;;;;;;;;;;;22.57;63.27;100484.11;1775088;79;20531;-58
2021/05/30 04:59:11;;;;;;;;;;;;;;;22.61;63.31;100487.83;1774780;79;20579;-59
2021/05/30 05:01:37;;;;;;;;;;;;;;;22.63;63.31;100487.70;1769428;79;20285;-58
2021/05/30 05:04:04;;;;;;;;;;;;;;;22.66;63.33;100492.56;1770902;79;20288;-58
2021/05/30 05:06:30;;;;;;;;;;;;;;;22.71;63.35;100486.85;1772670;79;20547;-57
2021/05/30 05:08:55;;;;;;;;;;;;;;;22.75;63.39;100492.52;1770282;79;20768;-58
2021/05/30 05:11:21;;;;;;;;;;;;;;;22.80;63.39;100494.28;1772261;79;21776;-58
2021/05/30 05:13:47;;;;;;;;;;;;;;;22.83;63.39;100485.30;1769741;79;20208;-58
2021/05/30 05:16:13;;;;;;;;;;;;;;;22.88;63.39;100492.00;1774470;79;20190;-58
2021/05/30 05:18:39;;;;;;;;;;;;;;;22.89;63.35;100488.09;1771495;79;20220;-58
2021/05/30 05:21:06;;;;;;;;;;;;;;;22.90;63.34;100482.20;1771506;79;20167;-58
2021/05/30 05:23:32;;;;;;;;;;;;;;;22.91;63.33;100490.77;1773429;79;21919;-58
2021/05/30 05:26:02;;;;;;;;;;;;;;;22.92;63.31;100497.92;1770856;79;21555;-58
2021/05/30 05:28:26;;;;;;;;;;;;;;;22.92;63.26;100497.92;1772923;79;20271;-59
2021/05/30 05:30:52;;;;;;;;;;;;;;;22.91;63.23;100489.95;1771789;79;20192;-58
2021/05/30 05:33:18;;;;;;;;;;;;;;;22.91;63.22;100492.73;1768936;79;20510;-57
2021/05/30 05:35:44;;;;;;;;;;;;;;;22.91;63.20;100492.73;1777445;79;21688;-59
2021/05/30 05:38:10;;;;;;;;;;;;;;;22.88;63.17;100493.39;1773527;79;20501;-59
2021/05/30 05:40:37;;;;;;;;;;;;;;;22.87;63.18;100494.56;1771624;79;20244;-58
2021/05/30 05:43:07;;;;;;;;;;;;;;;22.86;63.16;100489.59;1772206;79;20238;-58
2021/05/30 05:45:31;;;;;;;;;;;;;;;22.86;63.16;100487.39;1771667;79;20236;-58
2021/05/30 05:47:58;;;;;;;;;;;;;;;22.84;63.13;100490.49;1773404;79;21117;-58
2021/05/30 05:50:24;;;;;;;;;;;;;;;22.83;63.14;100481.92;1771713;79;20243;-58
2021/05/30 05:52:50;;;;;;;;;;;;;;;22.83;63.12;100492.23;1773401;79;20225;-58
2021/05/30 05:55:16;;;;;;;;;;;;;;;22.82;63.13;100490.61;1774316;79;20761;-59
2021/05/30 05:57:43;;;;;;;;;;;;;;;22.81;63.12;100487.59;1772675;79;20365;-58
2021/05/30 06:00:10;;;;;;;;;;;;;;;22.80;63.13;100494.28;1771777;79;21239;-58
2021/05/30 06:02:37;;;;;;;;;;;;;;;22.79;63.11;100489.91;1774216;79;20501;-58
2021/05/30 06:05:04;;;;;;;;;;;;;;;22.79;63.11;100487.14;1775426;79;20473;-58
2021/05/30 06:07:30;;;;;;;;;;;;;;;22.78;63.11;100493.83;1770200;79;20272;-56
2021/05/30 06:09:56;;;;;;;;;;;;;;;22.76;63.11;100488.04;1761574;80;20561;-57
2021/05/30 06:12:22;;;;;;;;;;;;;;;22.78;63.11;100492.44;1757991;81;21739;-58
2021/05/30 06:14:48;;;;;;;;;;;;;;;22.76;63.10;100489.42;1735857;81;21720;-58
2021/05/30 06:17:14;;;;;;;;;;;;;;;22.76;63.10;100490.00;1751233;81;20180;-58
2021/05/30 06:19:40;;;;;;;;;;;;;;;22.76;63.11;100493.59;1740361;81;20252;-58
2021/05/30 06:22:06;;;;;;;;;;;;;;;22.75;63.11;100496.11;1722825;82;20227;-58
2021/05/30 06:24:32;;;;;;;;;;;;;;;22.76;63.08;100499.70;1724233;82;20922;-57
2021/05/30 06:26:58;;;;;;;;;;;;;;;22.75;63.10;100491.95;1757695;81;20397;-58
2021/05/30 06:29:24;;;;;;;;;;;;;;;22.75;63.10;100493.34;1762542;81;20244;-58
2021/05/30 06:31:50;;;;;;;;;;;;;;;22.74;63.11;100501.42;1720017;82;20274;-58
2021/05/30 06:34:17;;;;;;;;;;;;;;;22.75;63.10;100497.50;1712522;82;20223;-58
2021/05/30 06:36:43;;;;;;;;;;;;;;;22.75;63.08;100502.23;1716139;82;21564;-58
2021/05/30 06:39:09;;;;;;;;;;;;;;;22.75;63.10;100507.20;1774134;79;20182;-58
2021/05/30 06:41:36;;;;;;;;;;;;;;;22.74;63.08;100505.58;1748519;80;20582;-58
2021/05/30 06:44:03;;;;;;;;;;;;;;;22.76;63.07;100513.57;1775424;79;20810;-59
2021/05/30 06:46:29;;;;;;;;;;;;;;;22.76;63.06;100521.31;1770624;79;20248;-58
2021/05/30 06:48:55;;;;;;;;;;;;;;;22.76;63.08;100518.55;1775004;79;21104;-58
2021/05/30 06:51:22;;;;;;;;;;;;;;;22.79;63.03;100521.20;1772048;79;20264;-58
2021/05/30 06:53:50;;;;;;;;;;;;;;;22.83;63.02;100529.69;1770319;80;20528;-58
2021/05/30 06:56:16;;;;;;;;;;;;;;;22.86;63.04;100530.39;1774763;79;20362;-58
2021/05/30 06:58:42;;;;;;;;;;;;;;;22.89;63.07;100533.28;1761746;80;20260;-58
2021/05/30 07:01:07;;;;;;;;;;;;;;;22.92;63.08;100530.39;1725608;82;21026;-59
2021/05/30 07:03:33;;;;;;;;;;;;;;;22.97;63.08;100535.74;1731168;82;20258;-57
2021/05/30 07:06:00;;;;;;;;;;;;;;;23.02;63.11;100538.31;1769615;79;20200;-57
2021/05/30 07:08:26;;;;;;;;;;;;;;;23.06;63.12;100538.69;1773604;79;20227;-58
2021/05/30 07:10:53;;;;;;;;;;;;;;;23.11;63.10;100544.60;1773236;79;20208;-58
2021/05/30 07:13:19;;;;;;;;;;;;;;;23.15;63.05;100543.58;1766168;80;21117;-59
2021/05/30 07:15:45;;;;;;;;;;;;;;;23.18;63.03;100542.08;1772698;79;20308;-58
2021/05/30 07:18:11;;;;;;;;;;;;;;;23.20;62.98;100545.33;1764452;80;20994;-59
2021/05/30 07:20:42;;;;;;;;;;;;;;;23.22;62.93;100544.40;1771938;80;20734;-58
2021/05/30 07:23:05;;;;;;;;;;;;;;;23.23;62.88;100544.64;1771774;79;20220;-58
2021/05/30 07:25:31;;;;;;;;;;;;;;;23.23;62.82;100541.87;1773052;80;21026;-58
2021/05/30 07:27:57;;;;;;;;;;;;;;;23.23;62.77;100546.84;1770519;79;20161;-58
2021/05/30 07:30:25;;;;;;;;;;;;;;;23.22;62.73;100543.83;1769943;80;20192;-59
2021/05/30 07:32:50;;;;;;;;;;;;;;;23.22;62.71;100539.66;1769817;80;20155;-59
2021/05/30 07:35:16;;;;;;;;;;;;;;;23.22;62.67;100544.40;1770793;79;20198;-59
2021/05/30 07:37:42;;;;;;;;;;;;;;;23.20;62.61;100546.72;1772870;80;21045;-59
2021/05/30 07:40:10;;;;;;;;;;;;;;;23.18;62.61;100538.73;1768633;79;21520;-59
2021/05/30 07:42:36;;;;;;;;;;;;;;;23.17;62.58;100539.05;1768069;80;20462;-58
2021/05/30 07:45:03;;;;;;;;;;;;;;;23.14;62.57;100535.01;1765617;80;20615;-59
2021/05/30 07:47:29;;;;;;;;;;;;;;;23.11;62.57;100542.64;1773048;79;20519;-58
2021/05/30 07:49:55;;;;;;;;;;;;;;;23.09;62.57;100542.73;1769476;79;21098;-58
2021/05/30 07:52:21;;;;;;;;;;;;;;;23.06;62.59;100552.55;1741933;80;20288;-58
2021/05/30 07:54:47;;;;;;;;;;;;;;;23.06;62.61;100543.41;1738678;81;20236;-58
2021/05/30 07:57:13;;;;;;;;;;;;;;;23.04;62.61;100551.28;1706926;83;20228;-58
2021/05/30 07:59:39;;;;;;;;;;;;;;;23.02;62.63;100557.16;1708758;82;20813;-58
2021/05/30 08:02:05;;;;;;;;;;;;;;;22.97;62.26;100559.33;1732152;81;21799;-60
2021/05/30 08:04:31;;;;;;;;;;;;;;;22.95;62.07;100556.91;1719355;82;20292;-60
2021/05/30 08:06:57;;;;;;;;;;;;;;;22.92;61.89;100560.34;1731299;81;20290;-58
2021/05/30 08:09:23;;;;;;;;;;;;;;;22.88;61.62;100557.19;1731996;81;20200;-60
2021/05/30 08:11:48;;;;;;;;;;;;;;;22.84;61.43;100557.63;1697384;84;21893;-61
2021/05/30 08:14:14;;;;;;;;;;;;;;;22.82;61.28;100553.02;1729151;81;23244;-58
2021/05/30 08:16:41;;;;;;;;;;;;;;;22.80;61.16;100545.02;1732694;81;21589;-59
2021/05/30 08:19:08;;;;;;;;;;;;;;;22.80;61.01;100541.44;1735969;81;20299;-59
2021/05/30 08:21:34;;;;;;;;;;;;;;;22.81;60.84;100545.84;1739302;81;20695;-59
2021/05/30 08:24:00;;;;;;;;;;;;;;;22.80;60.63;100549.76;1735599;81;20204;-59
2021/05/30 08:26:26;;;;;;;;;;;;;;;22.79;60.45;100551.72;1730781;81;21043;-59
2021/05/30 08:28:52;;;;;;;;;;;;;;;22.78;60.28;100556.23;1736195;81;20208;-59
2021/05/30 08:31:18;;;;;;;;;;;;;;;22.74;60.13;100556.10;1738575;81;20556;-59
2021/05/30 08:33:44;;;;;;;;;;;;;;;22.72;60.00;100560.59;1732124;81;20494;-59
2021/05/30 08:36:09;;;;;;;;;;;;;;;22.71;59.89;100561.73;1727888;81;20270;-59
2021/05/30 08:38:35;;;;;;;;;;;;;;;22.69;59.77;100561.84;1731589;81;21217;-61
2021/05/30 08:41:01;;;;;;;;;;;;;;;22.66;59.63;100567.44;1726238;81;20304;-59
2021/05/30 08:43:27;;;;;;;;;;;;;;;22.65;59.52;100572.77;1729052;81;20805;-59
2021/05/30 08:45:53;;;;;;;;;;;;;;;22.65;59.38;100574.16;1727487;81;20542;-59
2021/05/30 08:48:19;;;;;;;;;;;;;;;22.65;59.25;100576.12;1733649;81;20237;-60
2021/05/30 08:51:02;;;;;;;;;;;;;;;22.64;59.14;100580.03;1731868;81;20995;-58
2021/05/30 08:53:13;;;;;;;;;;;;;;;22.63;59.05;100581.98;1770999;79;20261;-60
2021/05/30 08:55:39;;;;;;;;;;;;;;;22.64;59.00;100580.03;1774567;79;20250;-60
2021/05/30 08:58:05;;;;;;;;;;;;;;;22.65;58.83;100581.09;1776117;79;20317;-59
2021/05/30 09:00:32;;;;;;;;;;;;;;;22.65;58.76;100575.55;1772455;79;20587;-60
2021/05/30 09:03:13;;;;;;;;;;;;;;;22.67;58.68;100582.13;1767481;80;23238;-59
2021/05/30 09:05:39;;;;;;;;;;;;;;;22.67;58.60;100580.73;1755356;81;20598;-60
2021/05/30 09:08:06;;;;;;;;;;;;;;;22.67;58.52;100580.16;1728417;81;32579;-59
2021/05/30 09:10:32;;;;;;;;;;;;;;;22.69;58.46;100578.48;1727243;81;20217;-60
2021/05/30 09:13:14;;;;;;;;;;;;;;;22.69;58.43;100583.46;1733814;82;20280;-59
2021/05/30 09:18:23;;;;;;;;;;;;;;;22.74;58.37;100588.00;1775625;79;20275;-60
2021/05/30 09:21:04;;;;;;;;;;;;;;;22.76;58.34;100585.68;1772053;79;20287;-60
2021/05/30 09:23:37;;;;;;;;;;;;;;;22.78;58.33;100586.17;1775395;79;21569;-58
2021/05/30 09:26:10;;;;;;;;;;;;;;;22.78;58.30;100582.02;1776591;79;20248;-59
2021/05/30 09:28:38;;;;;;;;;;;;;;;22.78;58.30;100577.03;1776860;79;21120;-59
2021/05/30 09:31:04;;;;;;;;;;;;;;;22.79;58.30;100581.44;1774781;79;20203;-59
2021/05/30 09:33:31;;;;;;;;;;;;;;;22.81;58.31;100582.72;1776749;79;20282;-60
2021/05/30 09:36:01;;;;;;;;;;;;;;;22.82;58.30;100577.98;1776228;79;20527;-60
2021/05/30 09:38:32;;;;;;;;;;;;;;;22.83;58.30;100578.23;1776115;79;20283;-59
2021/05/30 09:41:01;;;;;;;;;;;;;;;22.86;58.33;100574.77;1774448;79;21092;-61
2021/05/30 09:43:36;;;;;;;;;;;;;;;22.87;58.24;100577.22;1750177;80;20242;-58
2021/05/30 09:46:11;;;;;;;;;;;;;;;22.90;58.18;100580.69;1724787;82;20228;-58
2021/05/30 09:48:46;;;;;;;;;;;;;;;22.91;58.11;100578.73;1752983;80;20777;-57
2021/05/30 09:51:28;;;;;;;;;;;;;;;22.95;58.04;100574.12;1732844;82;20556;-58
2021/05/30 09:53:59;;;;;;;;;;;;;;;22.95;57.98;100574.94;1697392;82;21149;-57
2021/05/30 09:56:43;;;;;;;;;;;;;;;22.96;58.00;100570.17;1754840;81;20286;-58
2021/05/30 09:59:24;;;;;;;;;;;;;;;22.96;57.97;100572.95;1709525;80;20170;-57
2021/05/30 10:01:59;;;;;;;;;;;;;;;22.98;57.97;100573.44;1765519;80;20268;-57
2021/05/30 10:04:33;;;;;;;;;;;;;;;22.98;57.92;100567.89;1765244;80;20268;-58
2021/05/30 10:07:00;;;;;;;;;;;;;;;23.00;57.88;100564.22;1766009;80;21081;-57
2021/05/30 10:09:27;;;;;;;;;;;;;;;23.02;57.85;100561.90;1755441;81;21597;-57
2021/05/30 10:11:54;;;;;;;;;;;;;;;23.03;57.80;100558.80;1713180;82;20246;-60
2021/05/30 10:14:20;;;;;;;;;;;;;;;23.08;57.76;100557.77;1740148;80;20312;-61
2021/05/30 10:16:46;;;;;;;;;;;;;;;23.11;57.74;100550.15;1768276;79;20700;-59
2021/05/30 10:19:17;;;;;;;;;;;;;;;23.14;57.75;100550.84;1768843;79;21145;-58
2021/05/30 10:21:48;;;;;;;;;;;;;;;23.18;57.75;100547.62;1762372;79;20263;-57
2021/05/30 10:24:14;;;;;;;;;;;;;;;23.20;57.70;100540.59;1766246;79;20232;-58
2021/05/30 10:26:39;;;;;;;;;;;;;;;23.22;57.67;100546.60;1769280;79;20212;-58
2021/05/30 10:29:14;;;;;;;;;;;;;;;23.24;57.69;100547.66;1765086;79;20805;-58
2021/05/30 10:31:42;;;;;;;;;;;;;;;23.28;57.69;100547.78;1747576;80;21528;-57
2021/05/30 10:34:15;;;;;;;;;;;;;;;23.32;57.69;100548.72;1749039;80;20272;-61
2021/05/30 10:36:42;;;;;;;;;;;;;;;23.37;57.71;100554.88;1773092;79;20568;-57
2021/05/30 10:39:32;;;;;;;;;;;;;;;23.41;57.72;100553.61;1764055;79;20250;-57
2021/05/30 10:42:06;;;;;;;;;;;;;;;23.45;57.77;100548.45;1771544;79;20272;-57
2021/05/30 10:44:57;;;;;;;;;;;;;;;23.49;57.79;100550.77;1770694;79;21139;-57
2021/05/30 10:47:46;;;;;;;;;;;;;;;23.52;57.78;100557.02;1774388;79;20219;-58
2021/05/30 10:50:20;;;;;;;;;;;;;;;23.53;57.77;100554.48;1767358;79;20709;-57
2021/05/30 10:52:47;;;;;;;;;;;;;;;23.53;57.75;100556.45;1725648;80;22119;-57
2021/05/30 10:55:21;;;;;;;;;;;;;;;23.52;57.74;100567.31;1715502;81;20225;-58
2021/05/30 10:57:48;;;;;;;;;;;;;;;23.50;57.75;100555.75;1690771;82;21243;-57
2021/05/30 11:00:21;;;;;;;;;;;;;;;23.49;57.76;100560.49;1694543;83;21510;-57
2021/05/30 11:03:06;;;;;;;;;;;;;;;23.47;57.71;100561.40;1698092;84;20303;-57
2021/05/30 11:05:49;;;;;;;;;;;;;;;23.46;57.71;100563.97;1718711;82;20292;-56
2021/05/30 11:08:34;;;;;;;;;;;;;;;23.46;57.69;100561.19;1689774;83;20271;-56
2021/05/30 11:11:24;;;;;;;;;;;;;;;23.45;57.68;100572.05;1712602;82;21103;-56
2021/05/30 11:13:58;;;;;;;;;;;;;;;23.43;57.68;100571.56;1732950;81;20287;-57
2021/05/30 11:16:31;;;;;;;;;;;;;;;23.42;57.63;100571.90;1707862;82;20267;-57
2021/05/30 11:19:01;;;;;;;;;;;;;;;23.41;57.58;100573.05;1729201;81;20534;-56
2021/05/30 11:21:33;;;;;;;;;;;;;;;23.39;57.53;100565.05;1722878;82;20236;-57
2021/05/30 11:23:59;;;;;;;;;;;;;;;23.39;57.51;100569.78;1722016;82;21128;-58
2021/05/30 11:26:26;;;;;;;;;;;;;;;23.40;57.46;100567.25;1734047;81;20214;-59
2021/05/30 11:28:52;;;;;;;;;;;;;;;23.43;57.43;100568.79;1730279;81;20489;-59
2021/05/30 11:31:19;;;;;;;;;;;;;;;23.44;57.40;100554.34;1729505;81;20264;-58
2021/05/30 11:33:57;;;;;;;;;;;;;;;23.46;57.37;100550.08;1729704;81;20267;-58
2021/05/30 11:36:26;;;;;;;;;;;;;;;23.47;57.25;100557.23;1726758;81;22183;-59
2021/05/30 11:39:01;;;;;;;;;;;;;;;23.49;57.22;100556.91;1732307;81;20291;-59
2021/05/30 11:41:32;;;;;;;;;;;;;;;23.50;57.22;100551.02;1713368;82;20282;-59
2021/05/30 11:44:13;;;;;;;;;;;;;;;23.54;57.20;100549.75;1682242;83;20639;-58
2021/05/30 11:46:50;;;;;;;;;;;;;;;23.56;57.21;100551.59;1730995;81;20369;-58
2021/05/30 11:49:28;;;;;;;;;;;;;;;23.61;57.20;100543.86;1727367;81;20993;-59
2021/05/30 11:52:12;;;;;;;;;;;;;;;23.64;57.19;100543.73;1729819;80;20225;-58
2021/05/30 11:54:52;;;;;;;;;;;;;;;23.68;57.16;100539.72;1761218;80;20260;-59
2021/05/30 11:57:18;;;;;;;;;;;;;;;23.71;57.15;100545.38;1759303;80;20534;-59
2021/05/30 11:59:55;;;;;;;;;;;;;;;23.74;57.18;100541.91;1761394;80;20268;-59
2021/05/30 12:02:31;;;;;;;;;;;;;;;23.79;57.20;100539.48;1757285;80;21150;-60
2021/05/30 12:05:02;;;;;;;;;;;;;;;23.83;57.19;100545.97;1760817;80;20609;-60
2021/05/30 12:07:28;;;;;;;;;;;;;;;23.88;57.20;100537.42;1762903;80;20251;-59
2021/05/30 12:09:59;;;;;;;;;;;;;;;23.91;57.17;100536.14;1763240;80;20247;-59
2021/05/30 12:12:29;;;;;;;;;;;;;;;23.95;57.18;100530.70;1762397;79;20272;-60
2021/05/30 12:15:11;;;;;;;;;;;;;;;24.00;57.16;100544.36;1759102;80;21023;-59
2021/05/30 12:18:01;;;;;;;;;;;;;;;24.03;57.15;100533.94;1723706;82;20580;-58
2021/05/30 12:20:29;;;;;;;;;;;;;;;24.05;57.14;100533.84;1769182;80;20218;-59
2021/05/30 12:23:09;;;;;;;;;;;;;;;24.06;57.09;100539.61;1764356;79;20217;-59
2021/05/30 12:25:35;;;;;;;;;;;;;;;24.08;57.07;100541.47;1762855;80;20283;-60
2021/05/30 12:28:01;;;;;;;;;;;;;;;24.09;57.06;100533.95;1759251;80;21090;-59
2021/05/30 12:30:27;;;;;;;;;;;;;;;24.08;57.02;100530.35;1763203;80;20684;-59
2021/05/30 12:32:53;;;;;;;;;;;;;;;24.09;57.04;100530.59;1745635;80;20762;-59
2021/05/30 12:35:43;;;;;;;;;;;;;;;24.09;57.04;100529.20;1721426;82;20666;-59
2021/05/30 12:38:13;;;;;;;;;;;;;;;24.09;57.04;100527.81;1759865;79;20574;-59
2021/05/30 12:40:39;;;;;;;;;;;;;;;24.10;57.06;100530.02;1758956;80;21163;-59
2021/05/30 12:43:05;;;;;;;;;;;;;;;24.09;57.02;100538.12;1760056;80;20264;-59
2021/05/30 12:45:31;;;;;;;;;;;;;;;24.08;57.03;100532.32;1764805;80;20256;-58